Time;durP1;ratioP1;P1;durP2;ratioP2;P2;SDS_P1;SDS_P2;PMS_P1;PMS_P2;Temp;Humidity;BMP_temperature;BMP_pressure;BME280_temperature;BME280_humidity;BME280_pressure;Samples;Min_cycle;Max_cycle;Signal;HPM_P1;HPM_P2
2021/01/27 00:01:25;;;;;;;7.63;3.93;;;;;;;;;;5095159;28;20210;-85
2021/01/27 00:03:51;;;;;;;7.40;4.00;;;;;;;;;;5095983;28;20229;-84
2021/01/27 00:06:17;;;;;;;4.73;3.47;;;;;;;;;;5094108;28;20475;-84
2021/01/27 00:08:44;;;;;;;5.43;3.63;;;;;;;;;;5095879;28;20254;-84
2021/01/27 00:11:10;;;;;;;3.60;3.30;;;;;;;;;;5095201;28;20241;-85
2021/01/27 00:13:36;;;;;;;7.63;3.60;;;;;;;;;;5094577;28;20263;-84
2021/01/27 00:16:04;;;;;;;6.33;4.27;;;;;;;;;;5095396;28;20486;-84
2021/01/27 00:18:30;;;;;;;4.03;3.53;;;;;;;;;;5095507;28;20230;-83
2021/01/27 00:20:56;;;;;;;6.00;3.60;;;;;;;;;;5095805;28;20209;-84
2021/01/27 00:23:22;;;;;;;4.17;3.77;;;;;;;;;;5095754;28;20244;-85
2021/01/27 00:25:48;;;;;;;4.93;3.80;;;;;;;;;;5095736;28;20222;-84
2021/01/27 00:28:14;;;;;;;8.30;3.90;;;;;;;;;;5095947;28;20252;-86
2021/01/27 00:30:41;;;;;;;4.23;3.47;;;;;;;;;;5095711;28;20523;-84
2021/01/27 00:33:09;;;;;;;5.80;3.80;;;;;;;;;;5095432;28;20234;-84
2021/01/27 00:35:37;;;;;;;4.13;3.73;;;;;;;;;;5094177;28;20610;-84
2021/01/27 00:38:08;;;;;;;7.20;3.67;;;;;;;;;;5094008;28;20221;-84
2021/01/27 00:40:34;;;;;;;6.40;4.07;;;;;;;;;;5094956;28;20230;-84
2021/01/27 00:43:00;;;;;;;4.07;3.60;;;;;;;;;;5095440;28;20645;-84
2021/01/27 00:45:26;;;;;;;8.07;3.70;;;;;;;;;;5095084;28;20590;-84
2021/01/27 00:47:52;;;;;;;4.50;3.80;;;;;;;;;;5095297;28;20250;-84
2021/01/27 00:50:19;;;;;;;6.73;4.30;;;;;;;;;;5094180;28;20233;-84
2021/01/27 00:52:45;;;;;;;6.37;4.13;;;;;;;;;;5094067;28;20687;-83
2021/01/27 00:55:12;;;;;;;5.07;3.87;;;;;;;;;;5094687;28;20202;-84
2021/01/27 00:57:38;;;;;;;4.93;3.90;;;;;;;;;;5093835;28;20220;-85
2021/01/27 01:00:07;;;;;;;6.10;3.70;;;;;;;;;;5094603;28;20233;-83
2021/01/27 01:02:38;;;;;;;4.73;3.83;;;;;;;;;;5094961;28;20238;-84
2021/01/27 01:05:06;;;;;;;5.70;4.40;;;;;;;;;;5095024;28;20229;-84
2021/01/27 01:07:33;;;;;;;5.27;4.03;;;;;;;;;;5094671;28;20253;-85
2021/01/27 01:09:59;;;;;;;5.83;4.10;;;;;;;;;;5094806;28;20252;-84
2021/01/27 01:12:25;;;;;;;6.67;4.10;;;;;;;;;;5095143;28;20229;-85
2021/01/27 01:14:51;;;;;;;4.33;3.93;;;;;;;;;;5094933;28;20606;-85
2021/01/27 01:17:18;;;;;;;4.47;3.90;;;;;;;;;;5094694;28;20237;-86
2021/01/27 01:19:44;;;;;;;6.90;4.00;;;;;;;;;;5094600;28;20240;-84
2021/01/27 01:22:10;;;;;;;5.37;4.03;;;;;;;;;;5095213;28;20236;-82
2021/01/27 01:24:37;;;;;;;5.20;4.20;;;;;;;;;;5094789;28;20229;-85
2021/01/27 01:27:03;;;;;;;7.00;4.83;;;;;;;;;;5095135;28;20256;-84
2021/01/27 01:29:29;;;;;;;12.33;6.37;;;;;;;;;;5096200;28;20237;-82
2021/01/27 01:31:55;;;;;;;13.97;6.40;;;;;;;;;;5098983;28;20218;-85
2021/01/27 01:34:22;;;;;;;8.47;5.17;;;;;;;;;;5097193;28;20218;-85
2021/01/27 01:36:49;;;;;;;7.67;4.83;;;;;;;;;;5099096;28;20593;-85
2021/01/27 01:39:15;;;;;;;7.63;4.23;;;;;;;;;;5098024;28;20240;-84
2021/01/27 01:41:42;;;;;;;7.47;3.93;;;;;;;;;;5096247;28;20484;-84
2021/01/27 01:44:08;;;;;;;5.57;3.97;;;;;;;;;;5098686;28;20274;-84
2021/01/27 01:46:34;;;;;;;6.07;4.23;;;;;;;;;;5099037;28;20241;-83
2021/01/27 01:49:02;;;;;;;4.93;4.00;;;;;;;;;;5098628;28;20242;-84
2021/01/27 01:51:31;;;;;;;4.70;3.87;;;;;;;;;;5097308;28;20206;-83
2021/01/27 01:53:59;;;;;;;5.17;3.67;;;;;;;;;;5098331;28;20221;-84
2021/01/27 01:56:26;;;;;;;5.77;3.73;;;;;;;;;;5097808;28;20233;-84
2021/01/27 01:58:55;;;;;;;4.83;3.60;;;;;;;;;;5098435;28;20620;-84
2021/01/27 02:01:22;;;;;;;5.43;3.93;;;;;;;;;;5097996;28;20233;-84
2021/01/27 02:03:49;;;;;;;6.40;3.70;;;;;;;;;;5098399;28;20245;-84
2021/01/27 02:06:15;;;;;;;6.53;3.80;;;;;;;;;;5098188;28;20229;-83
2021/01/27 02:08:43;;;;;;;4.57;4.13;;;;;;;;;;5098017;28;20245;-83
2021/01/27 02:11:09;;;;;;;6.47;3.83;;;;;;;;;;5098425;28;20230;-85
2021/01/27 02:13:43;;;;;;;5.70;3.97;;;;;;;;;;5096815;28;20202;-85
2021/01/27 02:16:15;;;;;;;4.73;4.23;;;;;;;;;;5097921;28;20233;-83
2021/01/27 02:18:49;;;;;;;5.00;3.80;;;;;;;;;;5098154;28;20228;-85
2021/01/27 02:21:28;;;;;;;7.93;4.37;;;;;;;;;;5098018;28;20639;-84
2021/01/27 02:24:15;;;;;;;7.43;4.10;;;;;;;;;;5098001;28;20247;-84
2021/01/27 02:26:52;;;;;;;6.07;3.80;;;;;;;;;;5089859;28;20247;-84
2021/01/27 02:29:35;;;;;;;4.67;3.90;;;;;;;;;;5097795;28;20271;-84
2021/01/27 02:32:17;;;;;;;7.07;4.10;;;;;;;;;;5097989;28;20227;-83
2021/01/27 02:34:51;;;;;;;4.50;3.67;;;;;;;;;;5097766;28;20202;-83
2021/01/27 02:37:19;;;;;;;7.00;3.60;;;;;;;;;;5097642;28;20238;-85
2021/01/27 02:39:48;;;;;;;4.13;3.67;;;;;;;;;;5096847;28;20197;-83
2021/01/27 02:42:17;;;;;;;5.30;3.77;;;;;;;;;;5097763;28;20237;-83
2021/01/27 02:44:48;;;;;;;5.73;4.20;;;;;;;;;;5097388;28;20510;-85
2021/01/27 02:47:16;;;;;;;4.93;4.07;;;;;;;;;;5097270;28;20214;-84
2021/01/27 02:49:45;;;;;;;5.87;4.03;;;;;;;;;;5097358;28;20308;-85
2021/01/27 02:52:13;;;;;;;4.63;4.10;;;;;;;;;;5097453;28;20229;-84
2021/01/27 02:54:42;;;;;;;8.10;4.00;;;;;;;;;;5095707;28;20194;-83
2021/01/27 02:57:20;;;;;;;4.93;4.00;;;;;;;;;;5097357;28;20206;-85
2021/01/27 02:59:49;;;;;;;4.40;4.00;;;;;;;;;;5096853;28;20221;-84
2021/01/27 03:02:17;;;;;;;4.10;3.53;;;;;;;;;;5097300;28;20209;-85
2021/01/27 03:04:52;;;;;;;5.17;4.00;;;;;;;;;;5095889;28;20236;-83
2021/01/27 03:07:20;;;;;;;8.63;4.43;;;;;;;;;;5097276;28;20221;-84
2021/01/27 03:09:47;;;;;;;20.93;9.00;;;;;;;;;;5096317;28;20533;-84
2021/01/27 03:12:14;;;;;;;17.23;6.77;;;;;;;;;;5097027;28;20236;-84
2021/01/27 03:14:40;;;;;;;8.93;4.80;;;;;;;;;;5096919;28;20234;-85
2021/01/27 03:17:08;;;;;;;9.53;4.77;;;;;;;;;;5096773;28;20206;-83
2021/01/27 03:19:37;;;;;;;5.03;3.63;;;;;;;;;;5096970;28;20230;-83
2021/01/27 03:22:04;;;;;;;5.17;3.40;;;;;;;;;;5096769;28;20233;-83
2021/01/27 03:24:34;;;;;;;7.33;3.70;;;;;;;;;;5096801;28;20206;-82
2021/01/27 03:27:03;;;;;;;3.80;3.50;;;;;;;;;;5097042;28;20236;-84
2021/01/27 03:29:35;;;;;;;4.53;3.50;;;;;;;;;;5096682;28;20233;-83
2021/01/27 03:32:04;;;;;;;6.70;3.60;;;;;;;;;;5096897;28;20226;-84
2021/01/27 03:34:34;;;;;;;5.23;3.03;;;;;;;;;;5095090;28;20675;-83
2021/01/27 03:37:03;;;;;;;3.87;3.50;;;;;;;;;;5095489;28;20241;-83
2021/01/27 03:39:34;;;;;;;3.87;3.40;;;;;;;;;;5096873;28;20471;-83
2021/01/27 03:42:04;;;;;;;4.40;3.10;;;;;;;;;;5096809;28;20240;-83
2021/01/27 03:44:33;;;;;;;4.30;3.50;;;;;;;;;;5096560;28;20244;-83
2021/01/27 03:47:01;;;;;;;4.20;3.80;;;;;;;;;;5095959;28;20522;-83
2021/01/27 03:49:30;;;;;;;5.43;3.70;;;;;;;;;;5096526;28;20253;-82
2021/01/27 03:51:58;;;;;;;6.40;4.53;;;;;;;;;;5095634;28;20213;-83
2021/01/27 03:54:26;;;;;;;7.23;4.10;;;;;;;;;;5096542;28;20233;-84
2021/01/27 03:56:53;;;;;;;5.67;4.17;;;;;;;;;;5096029;28;20205;-82
2021/01/27 03:59:20;;;;;;;6.97;4.70;;;;;;;;;;5096278;28;20263;-85
2021/01/27 04:01:47;;;;;;;5.67;4.30;;;;;;;;;;5095064;28;20233;-84
2021/01/27 04:04:13;;;;;;;5.50;4.60;;;;;;;;;;5095048;28;20197;-84
2021/01/27 04:06:40;;;;;;;7.07;4.87;;;;;;;;;;5094378;28;20237;-82
2021/01/27 04:09:06;;;;;;;8.87;4.87;;;;;;;;;;5095683;28;20254;-83
2021/01/27 04:11:32;;;;;;;7.07;4.70;;;;;;;;;;5095610;28;20543;-83
2021/01/27 04:13:58;;;;;;;5.77;4.90;;;;;;;;;;5095622;28;20541;-83
2021/01/27 04:16:25;;;;;;;6.67;4.40;;;;;;;;;;5095958;28;20241;-84
2021/01/27 04:18:51;;;;;;;6.53;5.23;;;;;;;;;;5096013;28;20303;-84
2021/01/27 04:21:18;;;;;;;5.30;4.80;;;;;;;;;;5095078;28;20240;-83
2021/01/27 04:23:44;;;;;;;6.33;5.60;;;;;;;;;;5095740;28;20240;-83
2021/01/27 04:26:10;;;;;;;6.73;5.30;;;;;;;;;;5095182;28;20225;-83
2021/01/27 04:28:36;;;;;;;7.40;5.50;;;;;;;;;;5095639;28;20644;-83
2021/01/27 04:31:02;;;;;;;5.90;5.30;;;;;;;;;;5095263;28;20236;-84
2021/01/27 04:33:29;;;;;;;6.73;5.60;;;;;;;;;;5095858;28;20233;-83
2021/01/27 04:35:55;;;;;;;6.77;5.20;;;;;;;;;;5095179;28;20237;-83
2021/01/27 04:38:21;;;;;;;6.17;5.17;;;;;;;;;;5095513;28;20558;-83
2021/01/27 04:40:48;;;;;;;10.03;5.37;;;;;;;;;;5095274;28;20194;-82
2021/01/27 04:43:18;;;;;;;5.77;5.17;;;;;;;;;;5095502;28;20230;-83
2021/01/27 04:45:45;;;;;;;6.63;5.40;;;;;;;;;;5092779;28;20255;-81
2021/01/27 04:48:14;;;;;;;6.40;5.37;;;;;;;;;;5094886;28;20229;-82
2021/01/27 04:50:43;;;;;;;6.00;5.37;;;;;;;;;;5094973;28;20249;-83
2021/01/27 04:53:26;;;;;;;9.53;5.63;;;;;;;;;;5095411;28;20244;-85
2021/01/27 04:56:00;;;;;;;6.47;5.53;;;;;;;;;;5093807;28;20194;-83
2021/01/27 04:58:32;;;;;;;6.07;5.30;;;;;;;;;;5095086;28;20243;-82
2021/01/27 05:01:10;;;;;;;7.10;5.03;;;;;;;;;;5094607;28;20208;-83
2021/01/27 05:03:51;;;;;;;8.50;5.30;;;;;;;;;;5094034;28;20231;-88
2021/01/27 05:06:20;;;;;;;8.43;5.50;;;;;;;;;;5095200;28;20274;-82
2021/01/27 05:08:52;;;;;;;8.13;5.17;;;;;;;;;;5094720;28;20628;-82
2021/01/27 05:11:19;;;;;;;7.57;5.63;;;;;;;;;;5095246;28;20229;-83
2021/01/27 05:13:46;;;;;;;7.87;5.00;;;;;;;;;;5095519;28;20225;-86
2021/01/27 05:16:14;;;;;;;5.33;4.83;;;;;;;;;;5094862;28;20240;-86
2021/01/27 05:18:41;;;;;;;11.50;5.40;;;;;;;;;;5095184;28;20237;-85
2021/01/27 05:21:13;;;;;;;8.10;5.23;;;;;;;;;;5093296;28;20496;-84
2021/01/27 05:23:40;;;;;;;6.03;5.27;;;;;;;;;;5095287;28;20206;-87
2021/01/27 05:26:09;;;;;;;7.80;4.83;;;;;;;;;;5093562;28;20197;-86
2021/01/27 05:28:38;;;;;;;5.40;4.70;;;;;;;;;;5095029;28;20214;-84
2021/01/27 05:31:04;;;;;;;7.17;4.97;;;;;;;;;;5094856;28;20240;-83
2021/01/27 05:33:44;;;;;;;5.13;4.57;;;;;;;;;;5095013;28;20267;-83
2021/01/27 05:36:12;;;;;;;8.50;4.30;;;;;;;;;;5094678;28;20198;-84
2021/01/27 05:38:38;;;;;;;6.50;4.97;;;;;;;;;;5093322;28;20662;-84
2021/01/27 05:41:07;;;;;;;5.30;4.80;;;;;;;;;;5094834;28;20217;-83
2021/01/27 05:43:34;;;;;;;5.13;4.63;;;;;;;;;;5094750;28;20208;-82
2021/01/27 05:46:11;;;;;;;5.63;4.93;;;;;;;;;;5093328;28;20255;-83
2021/01/27 05:48:47;;;;;;;5.20;4.60;;;;;;;;;;5094694;28;20206;-83
2021/01/27 05:51:16;;;;;;;5.70;4.90;;;;;;;;;;5094668;28;20229;-83
2021/01/27 05:53:42;;;;;;;7.23;4.83;;;;;;;;;;5094885;28;20237;-82
2021/01/27 05:56:13;;;;;;;7.13;4.87;;;;;;;;;;5094571;28;20234;-84
2021/01/27 05:58:40;;;;;;;10.70;5.50;;;;;;;;;;5094277;28;20245;-85
2021/01/27 06:01:27;;;;;;;6.03;5.17;;;;;;;;;;5094562;28;20217;-84
2021/01/27 06:03:55;;;;;;;6.53;4.87;;;;;;;;;;5089124;28;20262;-84
2021/01/27 06:06:22;;;;;;;6.07;4.97;;;;;;;;;;5094420;28;20260;-83
2021/01/27 06:08:52;;;;;;;7.03;5.20;;;;;;;;;;5094569;28;20210;-85
2021/01/27 06:11:19;;;;;;;7.17;5.10;;;;;;;;;;5094074;28;20233;-84
2021/01/27 06:13:46;;;;;;;7.77;4.90;;;;;;;;;;5094573;28;20562;-85
2021/01/27 06:16:16;;;;;;;7.20;4.60;;;;;;;;;;5098004;28;20502;-84
2021/01/27 06:18:42;;;;;;;6.30;5.00;;;;;;;;;;5098233;28;20236;-83
2021/01/27 06:21:23;;;;;;;7.03;4.60;;;;;;;;;;5097943;28;20234;-82
2021/01/27 06:24:10;;;;;;;8.50;5.47;;;;;;;;;;5095329;28;20625;-83
2021/01/27 06:26:53;;;;;;;7.57;4.87;;;;;;;;;;5096804;28;20248;-84
2021/01/27 06:29:27;;;;;;;5.97;4.90;;;;;;;;;;5097343;28;20324;-83
2021/01/27 06:32:02;;;;;;;7.97;4.47;;;;;;;;;;5095504;28;20251;-83
2021/01/27 06:34:43;;;;;;;5.40;4.30;;;;;;;;;;5097158;28;20209;-84
2021/01/27 06:37:26;;;;;;;4.90;4.40;;;;;;;;;;5096863;28;20205;-83
2021/01/27 06:39:58;;;;;;;5.33;4.30;;;;;;;;;;5097206;28;20205;-83
2021/01/27 06:42:46;;;;;;;4.20;3.80;;;;;;;;;;5097091;28;20210;-84
2021/01/27 06:45:16;;;;;;;4.43;3.57;;;;;;;;;;5097485;28;20602;-83
2021/01/27 06:47:53;;;;;;;3.53;3.23;;;;;;;;;;5097169;28;20602;-85
2021/01/27 06:50:25;;;;;;;5.00;3.37;;;;;;;;;;5095825;28;20283;-84
2021/01/27 06:53:10;;;;;;;5.63;3.77;;;;;;;;;;5097250;28;20225;-84
2021/01/27 06:55:40;;;;;;;4.50;3.57;;;;;;;;;;5097879;28;20206;-83
2021/01/27 06:58:29;;;;;;;3.77;3.43;;;;;;;;;;5096053;28;20318;-83
2021/01/27 07:01:03;;;;;;;3.60;3.30;;;;;;;;;;5097077;28;20198;-81
2021/01/27 07:03:40;;;;;;;4.77;3.63;;;;;;;;;;5097433;28;20197;-83
2021/01/27 07:06:14;;;;;;;4.10;3.77;;;;;;;;;;5097190;28;20677;-84
2021/01/27 07:08:51;;;;;;;4.40;3.83;;;;;;;;;;5097365;28;20271;-86
2021/01/27 07:11:25;;;;;;;5.97;4.23;;;;;;;;;;5097371;28;20279;-87
2021/01/27 07:14:13;;;;;;;7.20;4.53;;;;;;;;;;5097279;28;20280;-84
2021/01/27 07:16:45;;;;;;;5.97;4.50;;;;;;;;;;5096698;28;20206;-86
2021/01/27 07:19:27;;;;;;;6.37;4.13;;;;;;;;;;5097153;28;20597;-83
2021/01/27 07:21:56;;;;;;;5.43;4.27;;;;;;;;;;5096796;28;20540;-82
2021/01/27 07:24:25;;;;;;;5.83;4.23;;;;;;;;;;5097008;28;20198;-83
2021/01/27 07:26:53;;;;;;;4.43;3.97;;;;;;;;;;5096400;28;20256;-83
2021/01/27 07:29:21;;;;;;;4.60;3.93;;;;;;;;;;5095298;28;20233;-82
2021/01/27 07:31:52;;;;;;;5.40;3.83;;;;;;;;;;5096595;28;20229;-82
2021/01/27 07:34:22;;;;;;;7.90;5.27;;;;;;;;;;5096630;28;20241;-84
2021/01/27 07:36:57;;;;;;;7.53;4.83;;;;;;;;;;5094928;28;20217;-82
2021/01/27 07:39:26;;;;;;;7.83;5.37;;;;;;;;;;5096594;28;20530;-84
2021/01/27 07:41:57;;;;;;;7.47;5.60;;;;;;;;;;5095878;28;20244;-81
2021/01/27 07:44:25;;;;;;;6.90;5.33;;;;;;;;;;5095904;28;20263;-82
2021/01/27 07:46:56;;;;;;;8.03;5.37;;;;;;;;;;5095946;28;20267;-84
2021/01/27 07:49:28;;;;;;;6.07;5.00;;;;;;;;;;5096221;28;20241;-83
2021/01/27 07:51:58;;;;;;;5.40;4.90;;;;;;;;;;5096120;28;20209;-83
2021/01/27 07:54:27;;;;;;;8.80;4.90;;;;;;;;;;5096130;28;20528;-83
2021/01/27 07:56:55;;;;;;;7.30;5.13;;;;;;;;;;5095692;28;20231;-82
2021/01/27 07:59:23;;;;;;;9.80;5.77;;;;;;;;;;5094858;28;20222;-83
2021/01/27 08:01:52;;;;;;;6.87;5.27;;;;;;;;;;5095168;28;20234;-82
2021/01/27 08:04:24;;;;;;;5.33;4.83;;;;;;;;;;5095943;28;20225;-81
2021/01/27 08:06:51;;;;;;;8.10;5.40;;;;;;;;;;5095611;28;20491;-83
2021/01/27 08:09:28;;;;;;;6.00;5.10;;;;;;;;;;5094632;28;20259;-84
2021/01/27 08:12:08;;;;;;;7.47;4.97;;;;;;;;;;5095640;28;20240;-85
2021/01/27 08:14:49;;;;;;;6.27;4.93;;;;;;;;;;5095903;28;20536;-87
2021/01/27 08:17:30;;;;;;;9.37;4.80;;;;;;;;;;5093348;28;20214;-85
2021/01/27 08:20:16;;;;;;;5.53;5.00;;;;;;;;;;5094786;28;20243;-83
2021/01/27 08:22:46;;;;;;;8.37;4.90;;;;;;;;;;5095463;28;20294;-83
2021/01/27 08:25:32;;;;;;;6.57;5.07;;;;;;;;;;5093567;28;20198;-85
2021/01/27 08:28:13;;;;;;;5.40;4.90;;;;;;;;;;5093061;28;20189;-85
2021/01/27 08:30:39;;;;;;;5.00;4.50;;;;;;;;;;5094603;28;20252;-83
2021/01/27 08:33:29;;;;;;;4.83;4.33;;;;;;;;;;5095437;28;20206;-83
2021/01/27 08:36:00;;;;;;;5.13;4.50;;;;;;;;;;5095274;28;20247;-83
2021/01/27 08:38:27;;;;;;;5.97;4.43;;;;;;;;;;5095120;28;20291;-82
2021/01/27 08:40:54;;;;;;;5.57;4.73;;;;;;;;;;5094945;28;20233;-85
2021/01/27 08:43:25;;;;;;;8.07;4.27;;;;;;;;;;5095182;28;20238;-86
2021/01/27 08:45:51;;;;;;;5.17;4.37;;;;;;;;;;5095493;28;20166;-88
2021/01/27 08:48:45;;;;;;;8.13;5.13;;;;;;;;;;5095518;28;20607;-85
2021/01/27 08:51:32;;;;;;;6.37;5.10;;;;;;;;;;5095175;28;20268;-87
2021/01/27 08:53:59;;;;;;;6.10;5.23;;;;;;;;;;5093465;28;20690;-84
2021/01/27 08:56:25;;;;;;;5.17;4.77;;;;;;;;;;5093502;28;20233;-86
2021/01/27 08:59:06;;;;;;;6.00;5.40;;;;;;;;;;5094102;28;20216;-86
2021/01/27 09:01:50;;;;;;;6.97;5.73;;;;;;;;;;5092740;28;20189;-85
2021/01/27 09:04:32;;;;;;;8.93;5.60;;;;;;;;;;5095219;28;20233;-85
2021/01/27 09:07:03;;;;;;;7.53;5.73;;;;;;;;;;5094741;28;20226;-86
2021/01/27 09:09:36;;;;;;;7.03;6.20;;;;;;;;;;5097246;28;20206;-87
2021/01/27 09:12:04;;;;;;;7.50;6.23;;;;;;;;;;5094075;28;20198;-85
2021/01/27 09:14:31;;;;;;;6.13;5.53;;;;;;;;;;5095193;28;20233;-85
2021/01/27 09:16:57;;;;;;;10.00;5.97;;;;;;;;;;5094787;28;20212;-85
2021/01/27 09:19:25;;;;;;;6.13;5.53;;;;;;;;;;5095059;28;20664;-85
2021/01/27 09:22:11;;;;;;;7.67;5.23;;;;;;;;;;5094929;28;20633;-85
2021/01/27 09:24:40;;;;;;;6.80;5.37;;;;;;;;;;5095025;28;20248;-84
2021/01/27 09:27:17;;;;;;;5.70;5.20;;;;;;;;;;5095101;28;20233;-85
2021/01/27 09:29:43;;;;;;;5.93;5.43;;;;;;;;;;5093570;28;20217;-84
2021/01/27 09:32:14;;;;;;;5.90;5.40;;;;;;;;;;5094661;28;20225;-85
2021/01/27 09:34:41;;;;;;;5.63;5.13;;;;;;;;;;5095000;28;20233;-84
2021/01/27 09:37:11;;;;;;;5.97;5.37;;;;;;;;;;5094718;28;20205;-83
2021/01/27 09:39:38;;;;;;;5.70;5.10;;;;;;;;;;5094933;28;20490;-83
2021/01/27 09:42:13;;;;;;;6.30;5.70;;;;;;;;;;5095006;28;20210;-83
2021/01/27 09:44:40;;;;;;;5.70;5.20;;;;;;;;;;5095489;28;20174;-83
2021/01/27 09:47:07;;;;;;;9.50;6.87;;;;;;;;;;5094329;28;20240;-82
2021/01/27 09:49:39;;;;;;;6.97;5.13;;;;;;;;;;5096240;28;20206;-83
2021/01/27 09:52:07;;;;;;;30.27;18.37;;;;;;;;;;5098736;28;20244;-82
2021/01/27 09:54:34;;;;;;;6.77;6.13;;;;;;;;;;5099086;28;20636;-83
2021/01/27 09:57:00;;;;;;;5.80;5.30;;;;;;;;;;5098620;28;20198;-83
2021/01/27 09:59:27;;;;;;;9.90;7.50;;;;;;;;;;5097364;28;20205;-84
2021/01/27 10:01:53;;;;;;;5.27;4.77;;;;;;;;;;5098202;28;20229;-84
2021/01/27 10:04:30;;;;;;;4.97;4.33;;;;;;;;;;5098454;28;20234;-84
2021/01/27 10:07:04;;;;;;;5.93;5.33;;;;;;;;;;5097892;28;20531;-83
2021/01/27 10:09:32;;;;;;;9.00;6.37;;;;;;;;;;5098492;28;20241;-86
2021/01/27 10:12:00;;;;;;;6.60;5.27;;;;;;;;;;5097416;28;20291;-84
2021/01/27 10:14:28;;;;;;;6.00;5.40;;;;;;;;;;5097954;28;20226;-87
2021/01/27 10:16:55;;;;;;;5.20;4.60;;;;;;;;;;5097716;28;20625;-83
2021/01/27 10:19:23;;;;;;;6.40;5.10;;;;;;;;;;5098566;28;20586;-83
2021/01/27 10:21:50;;;;;;;5.20;4.70;;;;;;;;;;5097935;28;20233;-83
2021/01/27 10:24:35;;;;;;;6.00;5.27;;;;;;;;;;5097884;28;20214;-83
2021/01/27 10:27:03;;;;;;;6.30;4.70;;;;;;;;;;5097588;28;20229;-84
2021/01/27 10:29:33;;;;;;;4.63;4.20;;;;;;;;;;5097878;28;20229;-83
2021/01/27 10:32:16;;;;;;;6.33;4.03;;;;;;;;;;5097353;28;20256;-83
2021/01/27 10:34:43;;;;;;;5.23;4.23;;;;;;;;;;5097804;28;20229;-83
2021/01/27 10:37:26;;;;;;;4.37;3.97;;;;;;;;;;5097570;28;20237;-84
2021/01/27 10:40:09;;;;;;;3.87;3.67;;;;;;;;;;5097666;28;20515;-84
2021/01/27 10:42:36;;;;;;;3.90;3.60;;;;;;;;;;5097763;28;20258;-85
2021/01/27 10:45:27;;;;;;;3.67;3.37;;;;;;;;;;5095997;28;20198;-85
2021/01/27 10:47:56;;;;;;;3.43;3.23;;;;;;;;;;5081575;28;20500;-90
2021/01/27 10:50:22;;;;;;;3.30;3.10;;;;;;;;;;5097959;28;20263;-91
2021/01/27 10:52:49;;;;;;;3.80;3.50;;;;;;;;;;5097739;28;20617;-84
2021/01/27 10:55:16;;;;;;;3.53;3.17;;;;;;;;;;5097347;28;20206;-86
2021/01/27 10:57:43;;;;;;;4.13;2.93;;;;;;;;;;5095167;28;20255;-87
2021/01/27 11:00:10;;;;;;;3.40;3.20;;;;;;;;;;5096371;28;20482;-85
2021/01/27 11:02:36;;;;;;;3.17;2.97;;;;;;;;;;5095589;28;20202;-82
2021/01/27 11:05:03;;;;;;;3.63;3.30;;;;;;;;;;5097318;28;20636;-80
2021/01/27 11:07:29;;;;;;;3.20;3.00;;;;;;;;;;5096748;28;20256;-83
2021/01/27 11:09:55;;;;;;;2.73;2.53;;;;;;;;;;5095709;28;20489;-85
2021/01/27 11:12:21;;;;;;;3.20;3.00;;;;;;;;;;5096640;28;20226;-86
2021/01/27 11:14:48;;;;;;;3.10;2.90;;;;;;;;;;5096009;28;20206;-83
2021/01/27 11:17:14;;;;;;;3.13;2.93;;;;;;;;;;5095908;28;20237;-89
2021/01/27 11:19:40;;;;;;;3.67;2.80;;;;;;;;;;5097113;28;20174;-84
2021/01/27 11:22:07;;;;;;;2.73;2.53;;;;;;;;;;5096292;28;20232;-84
2021/01/27 11:24:33;;;;;;;3.03;2.83;;;;;;;;;;5096953;28;20241;-84
2021/01/27 11:26:59;;;;;;;3.33;3.03;;;;;;;;;;5095568;28;20205;-84
2021/01/27 11:29:25;;;;;;;4.10;2.90;;;;;;;;;;5096998;28;20241;-86
2021/01/27 11:31:52;;;;;;;3.17;2.97;;;;;;;;;;5095660;28;20225;-84
2021/01/27 11:34:18;;;;;;;2.43;2.33;;;;;;;;;;5095949;28;20246;-85
2021/01/27 11:36:45;;;;;;;11.87;4.93;;;;;;;;;;5095438;28;20194;-86
2021/01/27 11:39:11;;;;;;;3.13;2.93;;;;;;;;;;5088269;28;20195;-87
2021/01/27 11:41:37;;;;;;;2.90;2.70;;;;;;;;;;5092185;28;20267;-83
2021/01/27 11:44:03;;;;;;;2.73;2.57;;;;;;;;;;5091745;28;20236;-86
2021/01/27 11:46:30;;;;;;;3.23;2.87;;;;;;;;;;5096115;28;20206;-85
2021/01/27 11:48:57;;;;;;;2.90;2.70;;;;;;;;;;5097391;28;20332;-84
2021/01/27 11:51:23;;;;;;;2.30;2.20;;;;;;;;;;5128559;27;20245;-84
2021/01/27 11:53:49;;;;;;;2.53;2.43;;;;;;;;;;5095146;28;20197;-86
2021/01/27 11:56:16;;;;;;;2.97;2.80;;;;;;;;;;5094798;28;20473;-85
2021/01/27 11:58:42;;;;;;;2.60;2.50;;;;;;;;;;5096603;28;20217;-86
2021/01/27 12:01:08;;;;;;;3.00;2.77;;;;;;;;;;5093296;28;20613;-86
2021/01/27 12:03:34;;;;;;;2.70;2.60;;;;;;;;;;5094564;28;20582;-84
2021/01/27 12:06:01;;;;;;;3.00;2.80;;;;;;;;;;5095865;28;20259;-85
2021/01/27 12:08:27;;;;;;;3.33;2.80;;;;;;;;;;5095312;28;20261;-85
2021/01/27 12:10:54;;;;;;;3.60;3.13;;;;;;;;;;5095363;28;20249;-84
2021/01/27 12:13:20;;;;;;;3.17;2.97;;;;;;;;;;5094057;28;20210;-84
2021/01/27 12:15:48;;;;;;;2.83;2.63;;;;;;;;;;5094559;28;20614;-84
2021/01/27 12:18:15;;;;;;;3.80;3.50;;;;;;;;;;5127863;27;20527;-85
2021/01/27 12:20:42;;;;;;;3.20;3.00;;;;;;;;;;5094920;28;20170;-85
2021/01/27 12:23:10;;;;;;;3.30;3.10;;;;;;;;;;5095002;28;20536;-84
2021/01/27 12:25:36;;;;;;;3.20;3.00;;;;;;;;;;5095017;28;20233;-84
2021/01/27 12:28:02;;;;;;;3.17;2.97;;;;;;;;;;5093290;28;20262;-83
2021/01/27 12:30:28;;;;;;;3.60;3.40;;;;;;;;;;5127082;27;20241;-84
2021/01/27 12:32:54;;;;;;;3.43;3.23;;;;;;;;;;5094195;28;20229;-85
2021/01/27 12:35:21;;;;;;;4.10;3.70;;;;;;;;;;5094954;28;20608;-84
2021/01/27 12:37:47;;;;;;;3.93;3.67;;;;;;;;;;5076360;28;20226;-85
2021/01/27 12:40:15;;;;;;;3.17;2.97;;;;;;;;;;5074314;28;20240;-85
2021/01/27 12:42:41;;;;;;;3.30;3.10;;;;;;;;;;5074269;28;20238;-87
2021/01/27 12:45:08;;;;;;;3.57;3.27;;;;;;;;;;5074652;28;20207;-85
2021/01/27 12:47:34;;;;;;;3.60;3.30;;;;;;;;;;5085133;28;20238;-83
2021/01/27 12:50:00;;;;;;;4.17;3.80;;;;;;;;;;5094473;28;20217;-85
2021/01/27 12:52:26;;;;;;;4.03;3.73;;;;;;;;;;5089764;28;20245;-84
2021/01/27 12:54:53;;;;;;;4.10;3.40;;;;;;;;;;5106614;28;20190;-84
2021/01/27 12:57:19;;;;;;;4.23;3.90;;;;;;;;;;5073942;28;20618;-84
2021/01/27 12:59:46;;;;;;;4.13;3.83;;;;;;;;;;5074463;28;20241;-82
2021/01/27 13:02:12;;;;;;;3.53;3.33;;;;;;;;;;5074376;28;20230;-82
2021/01/27 13:04:38;;;;;;;3.87;3.50;;;;;;;;;;5075196;28;20615;-87
2021/01/27 13:07:05;;;;;;;4.27;3.97;;;;;;;;;;5074482;28;20261;-80
2021/01/27 13:09:31;;;;;;;4.07;3.77;;;;;;;;;;5073971;28;20518;-82
2021/01/27 13:11:57;;;;;;;4.17;3.70;;;;;;;;;;5074384;28;20258;-80
2021/01/27 13:14:24;;;;;;;4.83;4.00;;;;;;;;;;5074969;28;20227;-81
2021/01/27 13:16:50;;;;;;;5.37;4.00;;;;;;;;;;5074395;28;20687;-84
2021/01/27 13:19:16;;;;;;;3.80;3.50;;;;;;;;;;5073742;28;20198;-83
2021/01/27 13:21:42;;;;;;;4.60;3.80;;;;;;;;;;5074212;28;20238;-84
2021/01/27 13:24:09;;;;;;;4.20;3.90;;;;;;;;;;5077255;28;20234;-83
2021/01/27 13:26:37;;;;;;;4.33;3.97;;;;;;;;;;5078059;28;20304;-84
2021/01/27 13:29:03;;;;;;;4.17;3.87;;;;;;;;;;5078296;28;20233;-84
2021/01/27 13:31:30;;;;;;;3.47;3.27;;;;;;;;;;5078078;28;20251;-85
2021/01/27 13:33:56;;;;;;;3.33;3.07;;;;;;;;;;5078253;28;20238;-82
2021/01/27 13:36:22;;;;;;;4.00;3.70;;;;;;;;;;5078284;28;20225;-83
2021/01/27 13:38:48;;;;;;;3.93;3.63;;;;;;;;;;5078093;28;20210;-84
2021/01/27 13:41:14;;;;;;;3.67;3.37;;;;;;;;;;5078041;28;20230;-84
2021/01/27 13:43:40;;;;;;;3.13;2.97;;;;;;;;;;5077960;28;20618;-84
2021/01/27 13:46:06;;;;;;;4.83;3.20;;;;;;;;;;5077563;28;20207;-83
2021/01/27 13:48:33;;;;;;;3.80;3.40;;;;;;;;;;5077564;28;20230;-82
2021/01/27 13:50:59;;;;;;;4.33;3.20;;;;;;;;;;5077800;28;20257;-83
2021/01/27 13:53:26;;;;;;;3.50;3.30;;;;;;;;;;5075962;28;20226;-82
2021/01/27 13:55:52;;;;;;;3.23;3.03;;;;;;;;;;5077846;28;20249;-84
2021/01/27 13:58:18;;;;;;;3.20;3.00;;;;;;;;;;5077535;28;20249;-83
2021/01/27 14:00:44;;;;;;;4.60;3.13;;;;;;;;;;5077714;28;20242;-83
2021/01/27 14:03:10;;;;;;;3.10;2.80;;;;;;;;;;5077229;28;20245;-81
2021/01/27 14:05:37;;;;;;;3.43;3.00;;;;;;;;;;5077778;28;20241;-83
2021/01/27 14:08:03;;;;;;;3.47;3.27;;;;;;;;;;5076997;28;20246;-81
2021/01/27 14:10:30;;;;;;;3.37;3.07;;;;;;;;;;5077497;28;20569;-83
2021/01/27 14:12:56;;;;;;;3.30;3.10;;;;;;;;;;5077586;28;20233;-82
2021/01/27 14:15:23;;;;;;;2.70;2.60;;;;;;;;;;5077652;28;20241;-84
2021/01/27 14:17:49;;;;;;;5.10;3.40;;;;;;;;;;5076950;28;20234;-83
2021/01/27 14:20:16;;;;;;;3.27;3.07;;;;;;;;;;5077638;28;20226;-84
2021/01/27 14:22:43;;;;;;;4.17;3.23;;;;;;;;;;5075733;28;20194;-84
2021/01/27 14:25:11;;;;;;;4.10;3.30;;;;;;;;;;5077385;28;20232;-83
2021/01/27 14:27:37;;;;;;;4.75;4.38;;;;;;;;;;5075285;28;21645;-82
2021/01/27 14:30:04;;;;;;;3.50;3.27;;;;;;;;;;5076527;28;20234;-81
2021/01/27 14:32:30;;;;;;;3.43;3.23;;;;;;;;;;5076365;28;20242;-82
2021/01/27 14:34:56;;;;;;;4.30;3.43;;;;;;;;;;5076009;28;20233;-82
2021/01/27 14:37:22;;;;;;;3.50;3.30;;;;;;;;;;5076111;28;20253;-82
2021/01/27 14:39:49;;;;;;;3.43;3.23;;;;;;;;;;5076681;28;20641;-82
2021/01/27 14:42:15;;;;;;;3.50;3.30;;;;;;;;;;5076334;28;20234;-81
2021/01/27 14:44:42;;;;;;;3.50;3.20;;;;;;;;;;5076808;28;20241;-82
2021/01/27 14:47:08;;;;;;;4.67;3.10;;;;;;;;;;5076626;28;20229;-82
2021/01/27 14:49:34;;;;;;;3.57;3.27;;;;;;;;;;5077259;28;20610;-82
2021/01/27 14:52:00;;;;;;;3.70;3.40;;;;;;;;;;5076838;28;20258;-82
2021/01/27 14:54:26;;;;;;;4.67;4.23;;;;;;;;;;5075823;28;20206;-82
2021/01/27 14:56:53;;;;;;;4.47;3.93;;;;;;;;;;5076554;28;20244;-82